createdAt,value
2022-08-25T00:00:33.800Z,6.88
2022-08-25T00:03:07.399Z,7.10
2022-08-25T00:05:35.721Z,6.30
2022-08-25T00:08:07.890Z,8.95
2022-08-25T00:13:05.520Z,7.22
2022-08-25T00:15:35.904Z,8.52
2022-08-25T00:18:16.984Z,8.07
2022-08-25T00:20:48.971Z,7.97
2022-08-25T00:23:19.147Z,7.43
2022-08-25T00:25:48.786Z,6.47
2022-08-25T00:28:19.490Z,6.53
2022-08-25T00:30:51.038Z,10.43
2022-08-25T00:33:28.537Z,6.75
2022-08-25T00:35:56.629Z,6.20
2022-08-25T00:38:28.760Z,6.93
2022-08-25T00:43:38.000Z,6.50
2022-08-25T00:46:06.553Z,7.10
2022-08-25T00:48:38.694Z,6.97
2022-08-25T00:53:47.830Z,10.02
2022-08-25T00:56:15.947Z,8.35
2022-08-25T00:58:48.205Z,8.43
2022-08-25T01:01:17.955Z,10.70
2022-08-25T01:03:50.434Z,7.57
2022-08-25T01:06:26.181Z,9.27
2022-08-25T01:08:54.601Z,8.25
2022-08-25T01:11:25.562Z,9.70
2022-08-25T01:13:58.402Z,9.02
2022-08-25T01:16:27.303Z,7.80
2022-08-25T01:19:00.500Z,8.40
2022-08-25T01:21:38.208Z,8.13
2022-08-25T01:24:15.157Z,8.10
2022-08-25T01:26:45.776Z,8.95
2022-08-25T01:29:25.493Z,7.88
2022-08-25T01:31:57.691Z,7.70
2022-08-25T01:34:32.565Z,7.40
2022-08-25T01:37:04.129Z,8.70
2022-08-25T01:39:38.476Z,6.30
2022-08-25T01:42:33.896Z,11.02
2022-08-25T01:45:03.869Z,6.68
2022-08-25T01:47:32.431Z,7.50
2022-08-25T01:50:06.056Z,8.38
2022-08-25T01:52:50.093Z,8.50
2022-08-25T01:55:23.197Z,9.70
2022-08-25T01:57:51.015Z,9.00
2022-08-25T02:00:27.421Z,9.02
2022-08-25T02:02:57.771Z,9.20
2022-08-25T02:05:26.185Z,11.55
2022-08-25T02:07:57.313Z,9.98
2022-08-25T02:10:25.191Z,9.80
2022-08-25T02:12:54.285Z,8.98
2022-08-25T02:15:25.392Z,8.82
2022-08-25T02:17:53.460Z,11.48
2022-08-25T02:20:24.032Z,10.70
2022-08-25T02:22:56.852Z,11.32
2022-08-25T02:25:26.749Z,8.30
2022-08-25T02:27:55.119Z,10.50
2022-08-25T02:30:24.258Z,9.63
2022-08-25T02:32:53.449Z,14.20
2022-08-25T02:35:22.968Z,10.30
2022-08-25T02:37:51.947Z,10.50
2022-08-25T02:40:22.507Z,10.63
2022-08-25T02:42:57.564Z,10.88
2022-08-25T02:45:25.458Z,11.40
2022-08-25T02:47:57.431Z,10.05
2022-08-25T02:50:26.188Z,10.35
2022-08-25T02:52:55.226Z,9.52
2022-08-25T02:55:24.002Z,10.82
2022-08-25T02:57:55.156Z,11.85
2022-08-25T03:00:26.341Z,11.63
2022-08-25T03:02:54.416Z,11.93
2022-08-25T03:05:24.839Z,11.27
2022-08-25T03:07:56.115Z,9.65
2022-08-25T03:10:26.357Z,9.27
2022-08-25T03:12:55.765Z,10.27
2022-08-25T03:15:27.745Z,11.38
2022-08-25T03:18:03.140Z,10.98
2022-08-25T03:20:35.572Z,11.00
2022-08-25T03:23:05.735Z,10.80
2022-08-25T03:25:52.841Z,10.40
2022-08-25T03:28:30.108Z,13.63
2022-08-25T03:31:10.836Z,12.60
2022-08-25T03:33:40.040Z,10.57
2022-08-25T03:36:13.101Z,13.57
2022-08-25T03:38:44.176Z,10.00
2022-08-25T03:41:17.811Z,12.25
2022-08-25T03:43:48.833Z,11.23
2022-08-25T03:46:22.330Z,11.35
2022-08-25T03:48:51.001Z,11.38
2022-08-25T03:51:25.718Z,11.82
2022-08-25T03:53:54.560Z,11.85
2022-08-25T03:56:22.737Z,11.30
2022-08-25T03:58:56.028Z,12.48
2022-08-25T04:01:28.597Z,13.30
2022-08-25T04:03:57.016Z,11.13
2022-08-25T04:06:24.846Z,13.73
2022-08-25T04:08:53.449Z,9.82
2022-08-25T04:11:24.864Z,14.00
2022-08-25T04:14:03.652Z,12.13
2022-08-25T04:16:36.315Z,11.98
2022-08-25T04:19:09.260Z,12.45
2022-08-25T04:21:38.903Z,12.52
2022-08-25T04:24:08.213Z,12.57
2022-08-25T04:26:40.886Z,12.40
2022-08-25T04:29:13.160Z,14.75
2022-08-25T04:34:14.379Z,11.75
2022-08-25T04:36:58.993Z,13.23
2022-08-25T04:39:28.098Z,12.35
2022-08-25T04:42:00.556Z,13.70
2022-08-25T04:44:32.145Z,11.88
2022-08-25T04:47:00.685Z,15.63
2022-08-25T04:49:28.745Z,11.55
2022-08-25T04:52:00.261Z,14.23
2022-08-25T04:54:37.284Z,15.32
2022-08-25T04:57:06.136Z,15.70
2022-08-25T04:59:35.364Z,14.32
2022-08-25T05:02:05.095Z,14.55
2022-08-25T05:04:34.424Z,11.93
2022-08-25T05:07:09.311Z,12.15
2022-08-25T05:09:40.319Z,13.80
2022-08-25T05:12:08.585Z,13.75
2022-08-25T05:14:40.794Z,12.27
2022-08-25T05:17:12.504Z,15.55
2022-08-25T05:19:41.524Z,12.13
2022-08-25T05:22:18.480Z,13.30
2022-08-25T05:24:46.350Z,13.73
2022-08-25T05:27:14.409Z,15.18
2022-08-25T05:29:50.051Z,12.40
2022-08-25T05:32:17.932Z,14.05
2022-08-25T05:34:48.675Z,18.73
2022-08-25T05:37:21.598Z,15.02
2022-08-25T05:39:49.518Z,17.88
2022-08-25T05:42:17.550Z,16.80
2022-08-25T05:44:58.082Z,15.55
2022-08-25T05:47:27.441Z,15.18
2022-08-25T05:49:55.484Z,17.50
2022-08-25T05:52:26.512Z,14.02
2022-08-25T05:54:59.593Z,15.57
2022-08-25T05:57:29.770Z,13.48
2022-08-25T05:59:59.135Z,12.85
2022-08-25T06:02:41.893Z,15.73
2022-08-25T06:05:16.576Z,14.07
2022-08-25T06:07:52.696Z,15.88
2022-08-25T06:10:27.224Z,14.60
2022-08-25T06:12:56.783Z,16.10
2022-08-25T06:15:32.578Z,15.93
2022-08-25T06:18:03.312Z,14.38
2022-08-25T06:20:32.908Z,16.95
2022-08-25T06:23:05.088Z,19.70
2022-08-25T06:28:06.794Z,17.13
2022-08-25T06:30:37.064Z,15.07
2022-08-25T06:33:05.101Z,13.13
2022-08-25T06:35:41.540Z,20.23
2022-08-25T06:38:11.760Z,16.75
2022-08-25T06:40:41.287Z,18.65
2022-08-25T06:43:09.884Z,16.02
2022-08-25T06:45:41.829Z,17.92
2022-08-25T06:48:09.638Z,15.43
2022-08-25T06:50:42.457Z,14.20
2022-08-25T06:53:18.482Z,19.58
2022-08-25T06:56:03.351Z,16.42
2022-08-25T06:58:36.618Z,13.07
2022-08-25T07:01:19.764Z,13.77
2022-08-25T07:03:52.792Z,15.85
2022-08-25T07:06:25.783Z,15.10
2022-08-25T07:08:59.951Z,16.38
2022-08-25T07:11:34.223Z,14.07
2022-08-25T07:14:05.898Z,14.40
2022-08-25T07:16:38.928Z,14.45
2022-08-25T07:19:09.776Z,16.75
2022-08-25T07:21:46.744Z,12.50
2022-08-25T07:24:15.405Z,16.08
2022-08-25T07:26:46.635Z,12.90
2022-08-25T07:29:32.392Z,14.03
2022-08-25T07:32:05.023Z,12.77
2022-08-25T07:34:52.232Z,12.07
2022-08-25T07:37:38.336Z,12.73
2022-08-25T07:40:20.957Z,13.23
2022-08-25T07:42:53.598Z,13.73
2022-08-25T07:45:29.533Z,13.77
2022-08-25T07:48:04.117Z,12.40
2022-08-25T07:50:32.772Z,12.35
2022-08-25T07:53:03.420Z,11.80
2022-08-25T07:55:42.729Z,12.18
2022-08-25T07:58:13.542Z,13.05
2022-08-25T08:00:42.220Z,12.55
2022-08-25T08:03:19.974Z,11.95
2022-08-25T08:06:01.457Z,10.00
2022-08-25T08:08:31.448Z,10.88
2022-08-25T08:11:04.666Z,11.50
2022-08-25T08:13:41.156Z,11.65
2022-08-25T08:16:10.680Z,12.27
2022-08-25T08:18:40.772Z,10.27
2022-08-25T08:21:13.480Z,12.45
2022-08-25T08:23:48.459Z,11.27
2022-08-25T08:26:22.489Z,10.35
2022-08-25T08:29:04.791Z,12.05
2022-08-25T08:31:35.950Z,14.23
2022-08-25T08:34:07.840Z,15.15
2022-08-25T08:36:37.564Z,12.38
2022-08-25T08:39:05.921Z,14.73
2022-08-25T08:42:16.782Z,14.80
2022-08-25T08:44:58.019Z,10.52
2022-08-25T08:47:42.831Z,11.77
2022-08-25T08:53:01.600Z,9.18
2022-08-25T08:55:33.805Z,9.68
2022-08-25T08:58:06.344Z,11.27
2022-08-25T09:00:41.345Z,12.07
2022-08-25T09:03:32.784Z,10.73
2022-08-25T09:06:04.909Z,11.40
2022-08-25T09:08:38.477Z,11.00
2022-08-25T09:11:20.188Z,10.07
2022-08-25T09:14:09.789Z,10.35
2022-08-25T09:16:56.257Z,13.32
2022-08-25T09:19:42.413Z,11.27
2022-08-25T09:22:35.242Z,9.32
2022-08-25T09:25:18.803Z,8.70
2022-08-25T09:28:03.436Z,7.63
2022-08-25T09:30:41.662Z,10.20
2022-08-25T09:33:16.194Z,10.05
2022-08-25T09:35:51.848Z,10.27
2022-08-25T09:38:26.155Z,11.93
2022-08-25T09:40:57.144Z,11.80
2022-08-25T09:43:33.106Z,12.07
2022-08-25T09:46:04.444Z,7.80
2022-08-25T09:48:39.807Z,7.90
2022-08-25T09:51:18.756Z,8.02
2022-08-25T09:53:56.560Z,8.68
2022-08-25T09:56:27.493Z,9.43
2022-08-25T09:59:03.012Z,11.18
2022-08-25T10:01:32.093Z,11.63
2022-08-25T10:04:05.459Z,8.65
2022-08-25T10:06:43.090Z,11.30
2022-08-25T10:09:24.098Z,9.85
2022-08-25T10:11:52.593Z,9.70
2022-08-25T10:14:38.635Z,10.10
2022-08-25T10:17:24.709Z,11.95
2022-08-25T10:20:14.742Z,23.92
2022-08-25T10:22:44.036Z,25.60
2022-08-25T10:25:16.185Z,45.17
2022-08-25T10:28:09.624Z,41.67
2022-08-25T10:30:52.421Z,17.88
2022-08-25T10:33:28.945Z,15.15
2022-08-25T10:36:06.548Z,13.07
2022-08-25T10:38:43.186Z,13.15
2022-08-25T10:41:35.758Z,12.73
2022-08-25T10:47:08.049Z,10.75
2022-08-25T10:49:40.149Z,10.77
2022-08-25T10:52:17.789Z,11.85
2022-08-25T10:54:55.331Z,12.90
2022-08-25T10:57:33.392Z,11.52
2022-08-25T11:00:09.521Z,11.57
2022-08-25T11:03:06.369Z,9.93
2022-08-25T11:05:42.026Z,10.70
2022-08-25T11:08:15.458Z,13.20
2022-08-25T11:10:48.483Z,11.35
2022-08-25T11:13:26.556Z,11.60
2022-08-25T11:18:52.365Z,13.43
2022-08-25T11:21:25.755Z,15.50
2022-08-25T11:24:00.727Z,15.90
2022-08-25T11:26:36.979Z,12.15
2022-08-25T11:29:12.657Z,12.05
2022-08-25T11:31:43.748Z,14.45
2022-08-25T11:34:14.493Z,15.10
2022-08-25T11:36:50.565Z,12.65
2022-08-25T11:39:34.005Z,17.50
2022-08-25T11:42:13.776Z,11.30
2022-08-25T11:44:53.726Z,12.10
2022-08-25T11:47:40.729Z,12.63
2022-08-25T11:50:29.909Z,19.77
2022-08-25T11:53:01.531Z,15.60
2022-08-25T11:55:48.273Z,14.68
2022-08-25T11:58:32.765Z,13.88
2022-08-25T12:01:03.591Z,13.57
2022-08-25T12:03:48.596Z,18.95
2022-08-25T12:06:24.928Z,15.20
2022-08-25T12:09:14.762Z,15.75
2022-08-25T12:11:58.060Z,16.05
2022-08-25T12:14:48.032Z,16.98
2022-08-25T12:17:27.145Z,15.90
2022-08-25T12:20:02.136Z,20.90
2022-08-25T12:22:51.447Z,16.88
2022-08-25T12:25:44.316Z,15.20
2022-08-25T12:28:40.109Z,16.83
2022-08-25T12:31:21.153Z,13.95
2022-08-25T12:34:02.101Z,16.65
2022-08-25T12:36:33.220Z,22.02
2022-08-25T12:39:24.763Z,17.75
2022-08-25T12:41:59.282Z,25.47
2022-08-25T12:44:41.382Z,19.13
2022-08-25T12:47:33.831Z,23.08
2022-08-25T12:50:43.280Z,22.13
2022-08-25T12:53:16.743Z,21.70
2022-08-25T12:55:50.892Z,19.38
2022-08-25T12:58:18.962Z,19.10
2022-08-25T13:01:10.266Z,20.27
2022-08-25T13:04:06.107Z,21.70
2022-08-25T13:06:59.474Z,14.45
2022-08-25T13:09:58.671Z,17.65
2022-08-25T13:12:51.640Z,17.85
2022-08-25T13:15:29.470Z,19.58
2022-08-25T13:18:22.270Z,18.85
2022-08-25T13:20:53.914Z,16.70
2022-08-25T13:23:29.226Z,19.65
2022-08-25T13:25:58.517Z,18.73
2022-08-25T13:28:30.654Z,18.33
2022-08-25T13:31:08.732Z,15.15
2022-08-25T13:33:37.527Z,12.85
2022-08-25T13:36:23.692Z,18.05
2022-08-25T13:38:53.472Z,18.98
2022-08-25T13:41:28.725Z,16.45
2022-08-25T13:44:00.904Z,21.63
2022-08-25T13:46:29.932Z,13.13
2022-08-25T13:49:08.918Z,14.80
2022-08-25T13:51:38.464Z,16.52
2022-08-25T13:54:10.371Z,17.38
2022-08-25T13:56:41.967Z,17.80
2022-08-25T13:59:25.667Z,16.42
2022-08-25T14:01:55.224Z,12.43
2022-08-25T14:04:33.095Z,16.50
2022-08-25T14:07:10.057Z,17.92
2022-08-25T14:09:46.443Z,13.50
2022-08-25T14:12:29.118Z,20.00
2022-08-25T14:15:02.683Z,15.75
2022-08-25T14:17:39.436Z,15.63
2022-08-25T14:20:21.902Z,12.93
2022-08-25T14:22:53.337Z,14.75
2022-08-25T14:25:23.195Z,16.13
2022-08-25T14:28:13.680Z,14.13
2022-08-25T14:30:46.434Z,16.90
2022-08-25T14:33:16.105Z,15.48
2022-08-25T14:35:47.482Z,19.50
2022-08-25T14:38:16.483Z,16.65
2022-08-25T14:40:46.726Z,18.13
2022-08-25T14:43:15.857Z,20.75
2022-08-25T14:45:46.225Z,22.40
2022-08-25T14:48:25.190Z,20.55
2022-08-25T14:50:53.262Z,15.00
2022-08-25T14:53:21.431Z,20.10
2022-08-25T14:55:53.839Z,16.10
2022-08-25T14:58:27.071Z,26.17
2022-08-25T15:00:56.502Z,14.27
2022-08-25T15:03:31.828Z,18.30
2022-08-25T15:06:01.388Z,14.93
2022-08-25T15:08:46.993Z,18.90
2022-08-25T15:11:16.437Z,16.23
2022-08-25T15:13:49.178Z,17.17
2022-08-25T15:16:23.068Z,15.93
2022-08-25T15:18:51.150Z,23.65
2022-08-25T15:21:22.755Z,21.02
2022-08-25T15:23:53.164Z,18.02
2022-08-25T15:26:25.917Z,15.45
2022-08-25T15:28:53.759Z,14.82
2022-08-25T15:31:23.417Z,19.88
2022-08-25T15:33:51.485Z,16.58
2022-08-25T15:36:29.074Z,16.55
2022-08-25T15:38:59.293Z,15.07
2022-08-25T15:41:29.689Z,20.20
2022-08-25T15:43:57.957Z,12.55
2022-08-25T15:46:31.130Z,16.52
2022-08-25T15:49:00.100Z,16.42
2022-08-25T15:51:28.820Z,14.70
2022-08-25T15:53:57.584Z,14.20
2022-08-25T15:56:27.224Z,17.85
2022-08-25T15:58:56.464Z,14.82
2022-08-25T16:01:30.478Z,14.88
2022-08-25T16:03:58.608Z,10.13
2022-08-25T16:06:27.078Z,13.90
2022-08-25T16:08:55.605Z,14.88
2022-08-25T16:11:25.421Z,12.93
2022-08-25T16:13:54.784Z,14.73
2022-08-25T16:16:27.769Z,21.77
2022-08-25T16:18:56.830Z,18.10
2022-08-25T16:21:29.052Z,12.82
2022-08-25T16:24:02.617Z,17.08
2022-08-25T16:26:38.101Z,18.75
2022-08-25T16:29:16.546Z,22.13
2022-08-25T16:31:53.553Z,13.38
2022-08-25T16:34:24.423Z,18.58
2022-08-25T16:36:53.310Z,12.90
2022-08-25T16:39:22.385Z,12.32
2022-08-25T16:41:52.808Z,14.57
2022-08-25T16:44:22.539Z,17.48
2022-08-25T16:46:54.372Z,20.25
2022-08-25T16:51:57.537Z,14.77
2022-08-25T16:54:44.343Z,15.13
2022-08-25T16:57:13.362Z,15.02
2022-08-25T16:59:42.578Z,13.90
2022-08-25T17:02:13.363Z,15.80
2022-08-25T17:04:41.955Z,18.17
2022-08-25T17:07:10.318Z,17.58
2022-08-25T17:09:38.158Z,16.55
2022-08-25T17:12:06.405Z,22.85
2022-08-25T17:14:34.367Z,12.65
2022-08-25T17:17:02.531Z,15.25
2022-08-25T17:19:33.257Z,17.08
2022-08-25T17:22:01.139Z,14.38
2022-08-25T17:24:29.354Z,21.02
2022-08-25T17:27:01.421Z,18.75
2022-08-25T17:29:30.145Z,22.10
2022-08-25T17:31:58.525Z,17.05
2022-08-25T17:34:27.492Z,16.67
2022-08-25T17:36:57.599Z,17.63
2022-08-25T17:39:26.220Z,14.02
2022-08-25T17:41:54.637Z,22.13
2022-08-25T17:44:22.523Z,20.15
2022-08-25T17:46:50.745Z,20.77
2022-08-25T17:49:19.817Z,22.33
2022-08-25T17:51:47.691Z,16.75
2022-08-25T17:54:17.904Z,21.45
2022-08-25T17:56:45.942Z,22.52
2022-08-25T17:59:14.017Z,15.75
2022-08-25T18:01:42.222Z,16.75
2022-08-25T18:04:17.352Z,19.70
2022-08-25T18:06:45.924Z,18.25
2022-08-25T18:09:14.284Z,16.95
2022-08-25T18:11:43.505Z,20.88
2022-08-25T18:14:12.037Z,17.85
2022-08-25T18:16:40.764Z,13.65
2022-08-25T18:19:10.714Z,17.98
2022-08-25T18:21:39.290Z,20.80
2022-08-25T18:24:09.350Z,17.67
2022-08-25T18:26:37.180Z,13.35
2022-08-25T18:29:06.619Z,16.40
2022-08-25T18:31:34.557Z,16.58
2022-08-25T18:34:05.016Z,18.80
2022-08-25T18:36:33.799Z,15.27
2022-08-25T18:39:30.457Z,18.17
2022-08-25T18:42:01.804Z,16.55
2022-08-25T18:44:31.472Z,17.75
2022-08-25T18:46:59.413Z,18.77
2022-08-25T18:49:28.904Z,13.98
2022-08-25T18:51:56.834Z,15.57
2022-08-25T18:54:24.695Z,19.02
2022-08-25T18:56:54.564Z,15.60
2022-08-25T18:59:23.306Z,18.40
2022-08-25T19:01:54.340Z,16.67
2022-08-25T19:04:28.415Z,15.10
2022-08-25T19:07:00.332Z,17.42
2022-08-25T19:09:28.183Z,15.95
2022-08-25T19:11:57.018Z,17.23
2022-08-25T19:14:26.424Z,14.63
2022-08-25T19:16:57.912Z,13.88
2022-08-25T19:19:25.888Z,19.50
2022-08-25T19:21:53.747Z,13.55
2022-08-25T19:24:22.415Z,18.45
2022-08-25T19:26:54.559Z,15.60
2022-08-25T19:29:23.114Z,13.70
2022-08-25T19:32:01.131Z,13.45
2022-08-25T19:34:32.397Z,18.15
2022-08-25T19:37:02.162Z,11.82
2022-08-25T19:42:31.708Z,15.52
2022-08-25T19:44:59.552Z,13.65
2022-08-25T19:47:29.656Z,17.92
2022-08-25T19:49:59.555Z,15.45
2022-08-25T19:52:27.806Z,15.63
2022-08-25T19:54:56.719Z,19.30
2022-08-25T19:57:28.218Z,17.25
2022-08-25T20:00:17.128Z,18.27
2022-08-25T20:02:47.198Z,15.13
2022-08-25T20:05:16.872Z,14.15
2022-08-25T20:07:52.181Z,15.70
2022-08-25T20:10:22.151Z,17.42
2022-08-25T20:12:50.176Z,14.00
2022-08-25T20:15:18.048Z,21.40
2022-08-25T20:17:47.248Z,15.30
2022-08-25T20:20:21.657Z,20.23
2022-08-25T20:22:50.235Z,16.42
2022-08-25T20:25:20.039Z,18.30
2022-08-25T20:27:53.346Z,24.60
2022-08-25T20:30:23.822Z,15.40
2022-08-25T20:32:54.421Z,15.80
2022-08-25T20:35:26.431Z,14.23
2022-08-25T20:37:56.356Z,18.73
2022-08-25T20:40:26.309Z,18.25
2022-08-25T20:43:00.138Z,15.93
2022-08-25T20:45:31.053Z,13.77
2022-08-25T20:48:02.176Z,15.80
2022-08-25T20:50:33.174Z,15.60
2022-08-25T20:53:01.459Z,16.23
2022-08-25T20:55:29.636Z,14.82
2022-08-25T20:57:57.527Z,19.25
2022-08-25T21:00:25.748Z,15.55
2022-08-25T21:02:54.286Z,18.27
2022-08-25T21:05:23.492Z,17.98
2022-08-25T21:07:51.471Z,16.85
2022-08-25T21:10:19.606Z,22.55
2022-08-25T21:12:49.285Z,16.33
2022-08-25T21:15:25.245Z,16.65
2022-08-25T21:17:54.350Z,18.30
2022-08-25T21:20:25.007Z,15.88
2022-08-25T21:22:53.312Z,15.40
2022-08-25T21:25:22.101Z,16.85
2022-08-25T21:27:49.912Z,17.45
2022-08-25T21:30:18.901Z,12.45
2022-08-25T21:32:53.470Z,16.77
2022-08-25T21:35:23.992Z,12.50
2022-08-25T21:37:53.519Z,15.43
2022-08-25T21:40:24.341Z,15.57
2022-08-25T21:42:57.669Z,17.27
2022-08-25T21:45:25.589Z,16.00
2022-08-25T21:47:55.867Z,18.63
2022-08-25T21:50:26.906Z,17.83
2022-08-25T21:55:28.046Z,19.08
2022-08-25T21:57:58.023Z,16.63
2022-08-25T22:00:26.082Z,17.73
2022-08-25T22:02:54.927Z,12.75
2022-08-25T22:05:22.791Z,15.50
2022-08-25T22:07:52.221Z,15.05
2022-08-25T22:10:20.635Z,15.02
2022-08-25T22:12:50.323Z,13.05
2022-08-25T22:15:18.698Z,15.20
2022-08-25T22:17:48.156Z,13.52
2022-08-25T22:20:17.245Z,15.48
2022-08-25T22:22:45.093Z,18.65
2022-08-25T22:25:15.100Z,15.20
2022-08-25T22:27:45.133Z,15.68
2022-08-25T22:30:15.747Z,16.85
2022-08-25T22:32:45.589Z,13.65
2022-08-25T22:35:13.914Z,16.58
2022-08-25T22:37:43.112Z,14.75
2022-08-25T22:40:11.957Z,14.75
2022-08-25T22:42:47.359Z,13.25
2022-08-25T22:45:16.064Z,16.95
2022-08-25T22:47:45.911Z,14.00
2022-08-25T22:50:17.341Z,17.38
2022-08-25T22:52:46.045Z,13.50
2022-08-25T22:55:16.264Z,13.82
2022-08-25T22:57:45.974Z,23.10
2022-08-25T23:00:15.886Z,17.67
2022-08-25T23:02:45.230Z,16.45
2022-08-25T23:05:15.299Z,15.68
2022-08-25T23:07:43.482Z,21.10
2022-08-25T23:10:14.156Z,15.98
2022-08-25T23:12:46.858Z,14.50
2022-08-25T23:17:44.205Z,11.43
2022-08-25T23:20:33.365Z,16.27
2022-08-25T23:23:01.250Z,13.18
2022-08-25T23:25:29.115Z,14.25
2022-08-25T23:27:58.395Z,15.57
2022-08-25T23:30:38.022Z,16.65
2022-08-25T23:33:07.225Z,17.15
2022-08-25T23:35:35.181Z,15.10
2022-08-25T23:38:08.509Z,14.80
2022-08-25T23:40:40.482Z,16.42
2022-08-25T23:45:39.011Z,17.20
2022-08-25T23:48:08.960Z,16.42
2022-08-25T23:50:41.105Z,15.45
2022-08-25T23:55:39.457Z,14.02
2022-08-25T23:58:21.503Z,16.27
